Time;durP1;ratioP1;P1;durP2;ratioP2;P2;SDS_P1;SDS_P2;PMS_P1;PMS_P2;Temp;Humidity;BMP_temperature;BMP_pressure;BME280_temperature;BME280_humidity;BME280_pressure;Samples;Min_cycle;Max_cycle;Signal;HPM_P1;HPM_P2
2023/07/18 00:00:32;;;;;;;6.63;4.50;;;;;;;25.10;71.43;100495.19;5022030;28;20059;-78
2023/07/18 00:02:58;;;;;;;7.55;4.18;;;;;;;25.03;72.14;100490.28;5038687;28;20320;-78
2023/07/18 00:05:23;;;;;;;10.30;4.40;;;;;;;24.98;71.89;100488.53;5037552;28;20223;-67
2023/07/18 00:07:49;;;;;;;7.63;4.70;;;;;;;24.98;72.25;100495.81;5026029;28;20057;-66
2023/07/18 00:10:18;;;;;;;5.38;4.32;;;;;;;24.81;73.24;100500.13;5037465;28;20219;-66
2023/07/18 00:12:43;;;;;;;7.97;4.63;;;;;;;24.63;73.84;100490.47;5039161;28;20060;-66
2023/07/18 00:15:09;;;;;;;6.30;4.53;;;;;;;24.47;74.34;100494.72;5040069;28;20471;-67
2023/07/18 00:17:36;;;;;;;6.75;4.43;;;;;;;24.49;74.11;100498.69;5037030;28;20495;-66
2023/07/18 00:20:09;;;;;;;6.97;4.68;;;;;;;24.48;74.45;100505.19;5039080;28;20061;-66
2023/07/18 00:22:35;;;;;;;5.60;4.65;;;;;;;24.49;74.14;100498.69;5037397;28;20491;-66
2023/07/18 00:25:00;;;;;;;5.57;4.38;;;;;;;24.55;73.69;100492.03;5038225;28;20029;-67
2023/07/18 00:27:26;;;;;;;7.30;4.57;;;;;;;24.57;73.59;100497.13;5038022;28;20083;-66
2023/07/18 00:29:51;;;;;;;5.75;4.43;;;;;;;24.58;73.04;100491.41;5036626;28;20025;-68
2023/07/18 00:32:16;;;;;;;7.38;4.60;;;;;;;24.55;73.00;100483.19;5039933;28;20475;-68
2023/07/18 00:34:44;;;;;;;6.25;4.72;;;;;;;24.57;73.26;100479.06;5039623;28;20070;-66
2023/07/18 00:37:09;;;;;;;7.30;4.70;;;;;;;24.57;73.29;100464.81;5039189;28;20021;-68
2023/07/18 00:39:35;;;;;;;7.15;4.60;;;;;;;24.59;73.15;100473.34;5039012;28;20068;-69
2023/07/18 00:42:00;;;;;;;8.05;4.65;;;;;;;24.56;73.46;100472.09;5025606;28;20030;-67
2023/07/18 00:44:26;;;;;;;9.27;4.72;;;;;;;24.61;73.32;100471.94;5037447;28;20029;-67
2023/07/18 00:46:52;;;;;;;4.97;4.50;;;;;;;24.57;73.39;100468.28;5037831;28;20031;-66
2023/07/18 00:49:17;;;;;;;6.55;4.60;;;;;;;24.55;73.66;100475.91;5036664;28;20029;-67
2023/07/18 00:51:43;;;;;;;8.15;5.32;;;;;;;24.44;74.66;100479.19;5038728;28;20048;-68
2023/07/18 00:54:09;;;;;;;5.40;4.53;;;;;;;24.08;76.12;100464.09;5038667;28;20028;-67
2023/07/18 00:56:34;;;;;;;5.95;4.75;;;;;;;24.05;76.77;100497.81;5037551;28;20790;-66
2023/07/18 00:59:00;;;;;;;7.00;4.80;;;;;;;23.85;77.98;100503.75;5035785;28;20065;-67
2023/07/18 01:01:25;;;;;;;11.43;5.35;;;;;;;23.81;77.99;100503.59;5038243;28;20055;-66
2023/07/18 01:03:53;;;;;;;11.10;5.68;;;;;;;23.76;77.71;100501.84;5027476;28;20036;-67
2023/07/18 01:06:18;;;;;;;8.85;5.80;;;;;;;23.90;77.48;100506.31;5039888;28;20040;-66
2023/07/18 01:08:44;;;;;;;11.32;5.53;;;;;;;23.84;77.58;100515.63;5037096;28;20025;-66
2023/07/18 01:11:09;;;;;;;12.20;5.60;;;;;;;23.73;78.25;100523.16;5034751;28;20025;-68
2023/07/18 01:13:35;;;;;;;10.20;5.40;;;;;;;23.71;78.60;100533.44;5038213;28;20238;-67
2023/07/18 01:16:01;;;;;;;9.43;5.90;;;;;;;23.67;78.33;100521.69;5036451;28;20052;-68
2023/07/18 01:18:27;;;;;;;10.05;6.25;;;;;;;23.82;77.91;100536.66;5034890;28;20079;-65
2023/07/18 01:20:54;;;;;;;11.48;5.38;;;;;;;23.80;77.91;100525.41;5038453;28;20483;-67
2023/07/18 01:23:21;;;;;;;9.82;5.68;;;;;;;23.86;78.58;100535.72;5035909;28;20025;-67
2023/07/18 01:25:46;;;;;;;12.35;6.40;;;;;;;23.83;78.77;100549.78;5035900;28;20041;-66
2023/07/18 01:28:12;;;;;;;9.43;6.50;;;;;;;23.86;78.82;100548.38;5035191;28;20033;-67
2023/07/18 01:30:38;;;;;;;10.93;6.10;;;;;;;23.73;79.03;100550.88;5035925;28;20483;-68
2023/07/18 01:33:03;;;;;;;8.80;6.10;;;;;;;23.69;78.94;100554.44;5035992;28;20029;-66
2023/07/18 01:35:29;;;;;;;10.48;6.50;;;;;;;23.59;79.28;100543.97;5039082;28;20064;-67
2023/07/18 01:37:56;;;;;;;9.07;5.90;;;;;;;23.66;79.56;100560.44;5037560;28;20033;-78
2023/07/18 01:40:22;;;;;;;9.77;6.63;;;;;;;23.65;79.69;100565.00;5036921;28;20048;-77
2023/07/18 01:42:53;;;;;;;10.73;6.50;;;;;;;23.57;79.91;100571.16;5038560;28;20039;-78
2023/07/18 01:45:27;;;;;;;11.82;7.05;;;;;;;23.56;80.05;100564.19;5038125;28;20057;-74
2023/07/18 01:47:54;;;;;;;9.27;6.68;;;;;;;23.60;79.55;100573.22;5037701;28;20087;-79
2023/07/18 01:50:20;;;;;;;9.90;6.65;;;;;;;23.60;79.83;100581.28;5036511;28;20060;-78
2023/07/18 01:52:49;;;;;;;9.80;6.93;;;;;;;23.58;80.18;100583.47;5019303;28;20029;-69
2023/07/18 01:55:15;;;;;;;11.27;7.85;;;;;;;23.60;81.00;100581.28;5027699;28;20017;-68
2023/07/18 01:57:40;;;;;;;11.73;7.82;;;;;;;23.63;80.90;100596.78;5032527;28;20038;-68
2023/07/18 02:00:11;;;;;;;13.97;8.13;;;;;;;23.54;81.90;100580.63;5036982;28;20035;-67
2023/07/18 02:02:40;;;;;;;21.05;8.20;;;;;;;23.53;82.09;100581.72;5034222;28;20296;-67
2023/07/18 02:05:06;;;;;;;15.07;8.60;;;;;;;23.56;82.80;100596.47;5035718;28;20044;-67
2023/07/18 02:07:31;;;;;;;18.23;8.73;;;;;;;23.55;82.98;100598.31;5035443;28;21603;-68
2023/07/18 02:09:57;;;;;;;15.45;8.27;;;;;;;23.53;82.54;100602.44;5025092;28;20024;-68
2023/07/18 02:12:23;;;;;;;24.38;8.85;;;;;;;23.52;83.30;100607.00;5035258;28;20041;-68
2023/07/18 02:14:48;;;;;;;21.05;9.40;;;;;;;23.34;84.09;100595.38;5038508;28;20029;-69
2023/07/18 02:17:14;;;;;;;15.00;9.23;;;;;;;23.26;84.66;100596.09;5035697;28;20062;-69
2023/07/18 02:19:40;;;;;;;16.00;10.50;;;;;;;23.13;84.97;100581.63;5018919;28;20534;-68
2023/07/18 02:22:05;;;;;;;14.32;10.60;;;;;;;23.23;85.12;100596.69;5018271;28;20960;-66
2023/07/18 02:24:31;;;;;;;15.45;10.98;;;;;;;23.02;86.65;100585.63;5035388;28;20056;-68
2023/07/18 02:26:58;;;;;;;14.73;9.88;;;;;;;23.11;85.65;100589.19;5034259;28;20116;-66
2023/07/18 02:29:23;;;;;;;14.43;9.80;;;;;;;23.14;86.78;100614.66;5034000;28;20039;-66
2023/07/18 02:31:50;;;;;;;12.95;10.73;;;;;;;23.13;86.01;100605.81;5035582;28;20025;-66
2023/07/18 02:34:15;;;;;;;12.40;10.18;;;;;;;23.10;87.04;100614.44;5035472;28;20155;-66
2023/07/18 02:36:41;;;;;;;25.20;11.07;;;;;;;23.10;86.88;100627.88;5035309;28;20103;-66
2023/07/18 02:39:08;;;;;;;12.27;9.20;;;;;;;23.06;86.51;100621.53;5035659;28;20048;-67
2023/07/18 02:41:34;;;;;;;18.15;9.93;;;;;;;23.03;87.18;100634.75;5035234;28;20603;-69
2023/07/18 02:44:00;;;;;;;16.15;9.43;;;;;;;22.93;87.14;100627.69;5035186;28;20033;-68
2023/07/18 02:46:25;;;;;;;24.52;10.23;;;;;;;22.75;87.55;100607.97;5036243;28;20131;-67
2023/07/18 02:48:50;;;;;;;14.93;10.65;;;;;;;22.86;87.38;100625.41;5034082;28;20055;-68
2023/07/18 02:51:16;;;;;;;20.70;10.35;;;;;;;22.79;86.96;100622.34;5036417;28;20098;-67
2023/07/18 02:53:42;;;;;;;15.30;10.23;;;;;;;22.71;87.72;100623.88;5037680;28;20413;-68
2023/07/18 02:56:07;;;;;;;22.27;10.73;;;;;;;22.63;89.19;100631.84;5036096;28;20089;-68
2023/07/18 02:58:33;;;;;;;17.55;10.43;;;;;;;22.56;89.30;100621.50;5037628;28;20120;-69
2023/07/18 03:00:59;;;;;;;16.75;11.15;;;;;;;22.62;89.54;100643.66;5036593;28;20052;-68
2023/07/18 03:03:26;;;;;;;14.27;10.82;;;;;;;22.56;89.35;100640.28;5050946;28;20505;-68
2023/07/18 03:05:53;;;;;;;15.68;10.73;;;;;;;22.47;89.48;100620.63;5059245;28;20040;-68
2023/07/18 03:08:19;;;;;;;15.77;10.27;;;;;;;22.47;89.49;100629.47;5055470;28;20032;-68
2023/07/18 03:10:46;;;;;;;20.30;11.60;;;;;;;22.35;92.40;100650.63;5053262;28;20028;-68
2023/07/18 03:13:12;;;;;;;16.50;10.85;;;;;;;22.35;92.40;100652.53;5053555;28;20031;-68
2023/07/18 03:15:39;;;;;;;18.92;11.40;;;;;;;22.24;92.51;100635.81;5056307;28;20029;-67
2023/07/18 03:18:06;;;;;;;15.15;11.20;;;;;;;22.25;92.66;100648.94;5053726;28;20052;-76
2023/07/18 03:20:31;;;;;;;15.25;10.88;;;;;;;22.34;92.16;100670.50;5057808;28;20496;-76
2023/07/18 03:22:56;;;;;;;15.05;10.32;;;;;;;22.32;91.87;100671.91;5052871;28;20024;-76
2023/07/18 03:25:22;;;;;;;16.58;10.45;;;;;;;22.24;93.05;100673.38;5055242;28;20090;-76
2023/07/18 03:27:47;;;;;;;15.43;10.95;;;;;;;22.17;92.92;100664.88;5057959;28;20041;-76
2023/07/18 03:30:13;;;;;;;14.20;9.38;;;;;;;22.14;93.21;100668.16;5054341;28;20070;-76
2023/07/18 03:32:41;;;;;;;14.02;9.50;;;;;;;22.21;92.74;100677.44;5054907;28;20032;-77
2023/07/18 03:35:07;;;;;;;15.18;9.13;;;;;;;22.20;92.14;100665.13;5054707;28;20028;-77
2023/07/18 03:37:36;;;;;;;13.68;9.27;;;;;;;22.09;92.95;100671.72;5056480;28;20028;-77
2023/07/18 03:40:04;;;;;;;12.35;9.20;;;;;;;22.08;92.72;100667.47;5056253;28;20060;-73
2023/07/18 03:42:29;;;;;;;13.77;9.63;;;;;;;22.11;92.61;100672.22;5061954;28;20043;-77
2023/07/18 03:44:55;;;;;;;13.55;9.38;;;;;;;22.13;92.04;100678.09;5052945;28;20024;-78
2023/07/18 03:47:20;;;;;;;14.65;9.43;;;;;;;22.17;92.20;100689.03;5056146;28;20540;-78
2023/07/18 03:49:45;;;;;;;15.23;10.38;;;;;;;22.14;92.07;100690.41;5061363;28;20064;-78
2023/07/18 03:52:11;;;;;;;14.35;10.00;;;;;;;22.21;92.14;100701.56;5053408;28;20482;-78
2023/07/18 03:54:36;;;;;;;13.32;9.70;;;;;;;22.21;91.98;100701.56;5058559;28;20051;-77
2023/07/18 03:57:02;;;;;;;14.35;10.43;;;;;;;22.19;92.61;100692.22;5056790;28;20058;-77
2023/07/18 03:59:27;;;;;;;20.00;10.45;;;;;;;22.21;92.77;100698.09;5057150;28;20037;-74
2023/07/18 04:01:53;;;;;;;15.88;10.25;;;;;;;22.21;92.38;100690.84;5050509;28;20135;-77
2023/07/18 04:04:18;;;;;;;13.70;10.35;;;;;;;22.22;92.63;100688.94;5034056;28;20025;-78
2023/07/18 04:06:43;;;;;;;16.30;10.32;;;;;;;22.25;92.10;100691.06;5036542;28;20458;-78
2023/07/18 04:09:12;;;;;;;16.40;10.90;;;;;;;22.35;91.64;100706.97;5033693;28;20148;-69
2023/07/18 04:11:38;;;;;;;14.57;10.60;;;;;;;22.33;91.52;100692.25;5016178;28;20029;-70
2023/07/18 04:14:03;;;;;;;17.90;10.70;;;;;;;22.43;91.67;100702.81;5014570;28;20442;-69
2023/07/18 04:16:29;;;;;;;15.00;10.02;;;;;;;22.44;91.02;100696.34;5039850;28;20041;-69
2023/07/18 04:18:54;;;;;;;16.35;10.85;;;;;;;22.53;91.20;100702.63;5036654;28;20056;-69
2023/07/18 04:21:21;;;;;;;18.42;10.63;;;;;;;22.54;91.07;100704.22;5039602;28;20390;-67
2023/07/18 04:23:48;;;;;;;15.45;11.15;;;;;;;22.53;91.14;100708.00;5012357;28;20036;-70
2023/07/18 04:26:13;;;;;;;15.13;10.75;;;;;;;22.61;90.88;100707.28;5035650;28;20025;-69
2023/07/18 04:28:39;;;;;;;13.35;9.77;;;;;;;22.68;90.63;100718.44;5016202;28;20091;-69
2023/07/18 04:31:05;;;;;;;14.25;10.10;;;;;;;22.70;90.15;100718.13;5034061;28;20079;-71
2023/07/18 04:33:34;;;;;;;16.33;9.88;;;;;;;22.72;90.48;100719.44;5033643;28;20116;-69
2023/07/18 04:36:00;;;;;;;17.30;10.25;;;;;;;22.80;90.23;100725.19;5038333;28;20024;-68
2023/07/18 04:38:26;;;;;;;15.50;10.23;;;;;;;22.70;90.10;100708.19;5037837;28;20531;-68
2023/07/18 04:40:51;;;;;;;15.25;10.45;;;;;;;22.81;90.17;100719.50;5024427;28;20040;-68
2023/07/18 04:43:17;;;;;;;17.45;9.98;;;;;;;22.92;89.66;100720.13;5024010;28;20471;-68
2023/07/18 04:45:47;;;;;;;15.63;10.52;;;;;;;22.96;89.22;100728.34;5035857;28;20033;-68
2023/07/18 04:48:17;;;;;;;15.88;10.40;;;;;;;22.99;89.03;100719.75;5037855;28;20028;-68
2023/07/18 04:50:45;;;;;;;14.02;10.25;;;;;;;23.00;88.96;100726.69;5036984;28;20021;-68
2023/07/18 04:53:11;;;;;;;18.85;9.80;;;;;;;23.07;89.58;100735.16;5037467;28;20033;-69
2023/07/18 04:55:38;;;;;;;15.77;10.32;;;;;;;23.14;89.03;100727.47;5024050;28;20036;-69
2023/07/18 04:58:05;;;;;;;15.48;9.93;;;;;;;23.17;88.54;100732.22;5039153;28;20047;-69
2023/07/18 05:00:31;;;;;;;13.98;9.88;;;;;;;23.25;88.59;100728.03;5038662;28;20444;-69
2023/07/18 05:02:57;;;;;;;16.40;10.00;;;;;;;23.29;88.00;100737.88;5037355;28;20503;-70
2023/07/18 05:05:25;;;;;;;16.30;10.07;;;;;;;23.35;88.14;100738.59;5039617;28;20084;-70
2023/07/18 05:07:50;;;;;;;14.20;9.65;;;;;;;23.38;87.71;100735.28;5022583;28;20442;-68
2023/07/18 05:10:15;;;;;;;16.05;9.40;;;;;;;23.49;86.98;100757.38;5037985;28;20017;-69
2023/07/18 05:12:41;;;;;;;17.10;9.82;;;;;;;23.59;86.39;100748.28;5036314;28;20107;-69
2023/07/18 05:15:07;;;;;;;13.18;8.80;;;;;;;23.67;86.33;100758.28;5022437;28;20056;-67
2023/07/18 05:17:33;;;;;;;12.90;9.07;;;;;;;23.67;85.35;100753.72;5039500;28;20033;-69
2023/07/18 05:19:58;;;;;;;14.07;8.70;;;;;;;23.84;85.57;100758.44;5039550;28;20111;-68
2023/07/18 05:22:24;;;;;;;9.57;8.48;;;;;;;23.87;84.26;100755.19;5036202;28;20592;-69
2023/07/18 05:24:49;;;;;;;14.40;8.25;;;;;;;24.06;83.61;100770.31;5037495;28;20032;-70
2023/07/18 05:27:14;;;;;;;12.43;8.10;;;;;;;24.09;83.21;100769.72;5036995;28;20704;-69
2023/07/18 05:29:40;;;;;;;11.35;8.18;;;;;;;24.12;82.31;100766.41;5040136;28;20031;-67
2023/07/18 05:32:06;;;;;;;13.00;8.38;;;;;;;24.17;81.97;100753.63;5035530;28;20035;-68
2023/07/18 05:34:33;;;;;;;11.90;8.02;;;;;;;24.28;82.01;100761.41;5038471;28;20052;-68
2023/07/18 05:37:00;;;;;;;10.48;8.00;;;;;;;24.45;81.22;100768.81;5022990;28;20037;-68
2023/07/18 05:39:29;;;;;;;12.60;7.97;;;;;;;24.49;81.39;100769.78;5033757;28;20025;-67
2023/07/18 05:41:54;;;;;;;13.63;7.97;;;;;;;24.62;80.82;100771.63;5037834;28;20024;-68
2023/07/18 05:44:20;;;;;;;11.70;7.68;;;;;;;24.80;78.64;100767.06;5036724;28;20471;-67
2023/07/18 05:46:46;;;;;;;11.50;7.57;;;;;;;24.89;78.14;100759.81;5037636;28;20116;-68
2023/07/18 05:49:11;;;;;;;11.70;7.45;;;;;;;24.96;78.32;100765.53;5036940;28;20044;-68
2023/07/18 05:51:36;;;;;;;9.75;7.15;;;;;;;25.05;77.56;100760.97;5036331;28;20095;-68
2023/07/18 05:54:04;;;;;;;9.95;7.55;;;;;;;25.07;77.44;100762.56;5019864;28;20025;-68
2023/07/18 05:56:30;;;;;;;12.70;7.70;;;;;;;25.05;76.98;100728.66;5021608;28;20554;-68
2023/07/18 05:58:55;;;;;;;10.80;6.90;;;;;;;25.32;76.35;100763.75;5040342;28;20027;-68
2023/07/18 06:01:21;;;;;;;8.98;6.60;;;;;;;25.37;76.32;100759.00;5038844;28;20036;-67
2023/07/18 06:03:47;;;;;;;10.02;7.13;;;;;;;25.46;75.34;100756.31;5043266;28;20032;-68
2023/07/18 06:06:13;;;;;;;12.25;6.78;;;;;;;25.62;75.05;100770.91;5037761;28;20087;-68
2023/07/18 06:08:39;;;;;;;12.07;6.82;;;;;;;25.61;72.31;100752.34;5034379;28;20029;-69
2023/07/18 06:11:04;;;;;;;10.20;6.30;;;;;;;25.77;72.51;100768.84;5034769;28;20029;-68
2023/07/18 06:13:29;;;;;;;9.35;6.07;;;;;;;25.83;72.46;100772.97;5037899;28;20553;-67
2023/07/18 06:15:55;;;;;;;7.78;6.80;;;;;;;25.92;71.93;100770.28;5036799;28;20500;-66
2023/07/18 06:18:20;;;;;;;8.77;6.53;;;;;;;26.08;70.99;100763.28;5021154;28;20458;-68
2023/07/18 06:20:45;;;;;;;9.55;6.30;;;;;;;26.17;70.21;100774.03;5037507;28;20039;-68
2023/07/18 06:23:11;;;;;;;8.68;6.07;;;;;;;26.12;70.20;100760.72;5038011;28;20036;-68
2023/07/18 06:25:36;;;;;;;8.15;5.95;;;;;;;26.27;69.18;100779.13;5036518;28;20550;-68
2023/07/18 06:28:02;;;;;;;9.50;6.45;;;;;;;26.16;68.28;100738.16;5025273;28;20090;-69
2023/07/18 06:30:28;;;;;;;5.90;5.30;;;;;;;26.39;68.69;100765.75;5036704;28;20514;-68
2023/07/18 06:36:23;;;;;;;7.65;6.00;;;;;;;26.56;68.21;100753.34;5570836;23;20062;-66
2023/07/18 06:38:49;;;;;;;8.00;5.83;;;;;;;26.73;66.98;100762.13;4998657;28;20044;-68
2023/07/18 06:41:14;;;;;;;8.13;5.75;;;;;;;26.76;65.80;100749.88;5001682;28;20038;-67
2023/07/18 06:43:39;;;;;;;8.88;5.50;;;;;;;26.80;65.84;100747.34;4995598;28;20540;-68
2023/07/18 06:46:05;;;;;;;9.93;6.57;;;;;;;26.86;66.07;100748.72;4994347;28;20036;-69
2023/07/18 06:48:30;;;;;;;8.20;6.03;;;;;;;26.81;67.02;100725.38;5001058;28;20499;-69
2023/07/18 06:50:59;;;;;;;6.18;5.38;;;;;;;27.12;64.05;100765.56;4997698;28;20030;-70
2023/07/18 06:53:25;;;;;;;;;;;;;;;27.19;63.96;100765.09;5005260;28;20042;-70
2023/07/18 06:55:50;;;;;;;7.38;5.90;;;;;;;27.27;63.73;100764.25;4996607;28;20864;-70
2023/07/18 06:58:16;;;;;;;6.55;5.38;;;;;;;27.32;62.17;100765.94;5004524;28;20080;-69
2023/07/18 07:00:44;;;;;;;8.93;5.18;;;;;;;27.46;62.29;100771.09;5013996;28;20026;-70
2023/07/18 07:03:10;;;;;;;8.55;5.03;;;;;;;27.55;61.10;100777.25;4997684;28;20022;-69
2023/07/18 07:05:38;;;;;;;6.40;5.28;;;;;;;27.67;60.45;100785.41;4999847;28;20045;-70
2023/07/18 07:08:09;;;;;;;6.68;5.55;;;;;;;27.71;60.11;100770.09;4996763;28;20074;-69
2023/07/18 07:10:39;;;;;;;6.93;5.20;;;;;;;27.76;60.24;100772.59;4998911;28;20080;-70
2023/07/18 07:13:04;;;;;;;7.85;5.00;;;;;;;27.78;60.37;100773.06;4995723;28;20029;-70
2023/07/18 07:15:30;;;;;;;8.50;4.90;;;;;;;27.88;58.51;100768.41;4999243;28;20030;-70
2023/07/18 07:17:55;;;;;;;5.65;4.60;;;;;;;27.98;58.43;100786.94;5000449;28;20033;-71
2023/07/18 07:20:22;;;;;;;9.00;4.85;;;;;;;28.08;57.38;100785.72;5006162;28;20034;-70
2023/07/18 07:22:47;;;;;;;6.55;4.80;;;;;;;28.07;56.92;100784.94;5001206;28;20021;-69
2023/07/18 07:25:15;;;;;;;7.45;4.38;;;;;;;28.13;57.19;100785.50;5001854;28;20084;-68
2023/07/18 07:27:43;;;;;;;6.75;4.25;;;;;;;28.19;56.91;100793.09;5000261;28;20018;-69
2023/07/18 07:30:10;;;;;;;5.37;4.57;;;;;;;28.25;56.27;100784.75;5001428;28;20060;-70
2023/07/18 07:32:35;;;;;;;8.10;4.70;;;;;;;28.39;56.95;100802.25;4998686;28;20038;-69
2023/07/18 07:35:00;;;;;;;7.95;5.00;;;;;;;28.41;56.96;100775.63;5000606;28;20026;-70
2023/07/18 07:37:26;;;;;;;5.88;4.55;;;;;;;28.51;55.81;100787.97;5003353;28;20141;-70
2023/07/18 07:39:51;;;;;;;7.75;4.13;;;;;;;28.58;55.62;100792.84;5003767;28;20822;-70
2023/07/18 07:42:17;;;;;;;5.50;4.15;;;;;;;28.55;55.16;100783.47;5001815;28;20113;-71
2023/07/18 07:44:44;;;;;;;8.13;4.45;;;;;;;28.42;55.23;100765.59;5001976;28;20025;-70
2023/07/18 07:47:10;;;;;;;6.63;4.47;;;;;;;28.59;55.21;100789.81;5001041;28;20049;-71
2023/07/18 07:49:35;;;;;;;5.47;4.18;;;;;;;28.75;55.43;100800.75;5000980;28;20496;-69
2023/07/18 07:52:01;;;;;;;8.15;4.38;;;;;;;28.78;54.53;100802.00;4999407;28;20030;-68
2023/07/18 07:54:26;;;;;;;5.60;4.28;;;;;;;28.79;54.83;100798.19;5008149;28;20037;-70
2023/07/18 07:56:51;;;;;;;5.13;4.45;;;;;;;28.86;54.46;100797.63;5002016;28;20033;-70
2023/07/18 07:59:17;;;;;;;7.78;4.35;;;;;;;28.88;54.46;100790.72;4998666;28;20037;-69
2023/07/18 08:01:42;;;;;;;6.78;4.07;;;;;;;29.09;52.87;100800.66;4998467;28;20032;-69
2023/07/18 08:04:09;;;;;;;7.55;3.88;;;;;;;29.11;53.14;100806.53;5005523;28;20030;-69
2023/07/18 08:06:35;;;;;;;4.97;3.70;;;;;;;29.08;52.87;100808.00;4997891;28;20030;-69
2023/07/18 08:09:02;;;;;;;5.15;3.70;;;;;;;29.09;52.65;100796.03;5000020;28;20036;-68
2023/07/18 08:11:27;;;;;;;6.07;3.60;;;;;;;29.18;52.68;100804.84;5007958;28;20033;-68
2023/07/18 08:13:53;;;;;;;4.10;3.70;;;;;;;29.30;52.65;100808.66;5002685;28;20033;-68
2023/07/18 08:16:19;;;;;;;6.63;4.10;;;;;;;29.31;52.06;100805.63;5002612;28;20044;-69
2023/07/18 08:18:44;;;;;;;5.93;4.10;;;;;;;29.46;52.37;100809.53;5003443;28;21052;-68
2023/07/18 08:21:10;;;;;;;8.65;3.95;;;;;;;29.36;51.72;100805.38;5003090;28;20080;-67
2023/07/18 08:23:35;;;;;;;6.22;4.00;;;;;;;29.48;52.57;100805.34;5007046;28;20070;-68
2023/07/18 08:26:00;;;;;;;8.77;3.53;;;;;;;29.45;51.99;100795.19;5004400;28;20069;-68
2023/07/18 08:28:26;;;;;;;5.80;4.03;;;;;;;29.57;51.74;100810.66;5003987;28;20362;-67
2023/07/18 08:30:51;;;;;;;9.50;3.92;;;;;;;29.51;51.07;100806.59;5002729;28;20038;-69
2023/07/18 08:33:19;;;;;;;4.88;3.90;;;;;;;29.54;51.36;100810.53;5001574;28;20040;-69
2023/07/18 08:35:44;;;;;;;5.90;3.95;;;;;;;29.49;51.20;100800.72;5001539;28;20039;-69
2023/07/18 08:38:11;;;;;;;9.57;3.80;;;;;;;29.63;51.81;100816.63;5007976;28;20403;-70
2023/07/18 08:40:41;;;;;;;9.88;4.30;;;;;;;29.58;51.03;100797.88;5003518;28;20018;-68
2023/07/18 08:43:13;;;;;;;9.52;3.65;;;;;;;29.69;51.13;100807.13;4999630;28;20034;-68
2023/07/18 08:45:39;;;;;;;5.60;3.67;;;;;;;29.72;51.75;100802.94;5012926;28;20034;-69
2023/07/18 08:48:05;;;;;;;5.50;3.65;;;;;;;29.79;51.33;100797.72;5002289;28;20030;-68
2023/07/18 08:50:32;;;;;;;4.80;3.80;;;;;;;29.76;51.18;100798.38;5001230;28;20121;-67
2023/07/18 08:52:58;;;;;;;4.90;3.88;;;;;;;29.75;51.03;100786.75;5005888;28;20025;-68
2023/07/18 08:55:23;;;;;;;6.43;4.00;;;;;;;29.83;51.15;100795.88;5004381;28;20034;-68
2023/07/18 08:57:50;;;;;;;7.22;4.05;;;;;;;29.96;49.92;100812.91;5006239;28;20061;-67
2023/07/18 09:00:20;;;;;;;5.82;3.75;;;;;;;29.96;50.12;100804.75;5012080;28;20105;-70
2023/07/18 09:02:48;;;;;;;5.90;4.07;;;;;;;29.95;49.30;100800.47;5005004;28;20112;-69
2023/07/18 09:05:34;;;;;;;6.60;3.72;;;;;;;30.16;49.16;100806.47;5007462;28;20023;-68
2023/07/18 09:08:02;;;;;;;5.57;3.88;;;;;;;30.11;49.09;100807.50;5011208;28;20041;-70
2023/07/18 09:10:28;;;;;;;7.32;3.60;;;;;;;30.16;49.58;100801.03;5009817;28;20057;-68
2023/07/18 09:12:54;;;;;;;4.80;3.90;;;;;;;30.08;49.34;100781.03;5007682;28;20061;-72
2023/07/18 09:15:20;;;;;;;5.93;3.72;;;;;;;30.23;48.61;100801.22;5010482;28;20026;-70
2023/07/18 09:18:00;;;;;;;7.38;3.80;;;;;;;30.28;49.61;100795.53;5009726;28;20033;-70
2023/07/18 09:20:27;;;;;;;6.40;3.85;;;;;;;30.37;49.28;100805.47;5009442;28;20049;-71
2023/07/18 09:22:58;;;;;;;5.53;3.83;;;;;;;30.44;49.13;100809.16;5009650;28;20038;-70
2023/07/18 09:25:24;;;;;;;5.22;3.65;;;;;;;30.50;48.48;100801.53;5007466;28;20693;-69
2023/07/18 09:27:54;;;;;;;5.20;3.83;;;;;;;30.59;48.31;100812.22;5004454;28;20040;-69
2023/07/18 09:30:21;;;;;;;4.35;3.60;;;;;;;30.64;48.40;100801.88;5007626;28;20030;-70
2023/07/18 09:32:50;;;;;;;8.90;4.07;;;;;;;30.69;48.22;100782.56;5010951;28;20041;-70
2023/07/18 09:35:15;;;;;;;4.22;3.25;;;;;;;30.78;48.50;100798.72;5009271;28;20031;-71
2023/07/18 09:37:48;;;;;;;6.25;3.78;;;;;;;30.72;46.60;100784.59;5006573;28;20046;-70
2023/07/18 09:40:15;;;;;;;5.80;3.95;;;;;;;30.79;47.06;100783.97;5003766;28;20029;-71
2023/07/18 09:42:44;;;;;;;5.75;3.50;;;;;;;30.89;47.07;100780.75;5011682;28;20057;-71
2023/07/18 09:45:10;;;;;;;5.22;3.50;;;;;;;30.91;46.94;100770.31;5007543;28;20542;-71
2023/07/18 09:47:37;;;;;;;7.32;3.83;;;;;;;30.95;45.82;100768.44;5012807;28;20096;-71
2023/07/18 09:50:04;;;;;;;6.95;3.60;;;;;;;30.95;46.03;100763.00;5006993;28;20057;-71
2023/07/18 09:52:32;;;;;;;7.18;3.92;;;;;;;31.04;45.99;100768.25;5007868;28;20029;-72
2023/07/18 09:54:58;;;;;;;6.25;3.58;;;;;;;31.03;45.81;100750.38;5008576;28;20094;-73
2023/07/18 09:57:24;;;;;;;5.93;3.75;;;;;;;31.12;45.23;100759.09;5004629;28;20023;-72
2023/07/18 09:59:50;;;;;;;6.07;3.17;;;;;;;31.11;45.15;100751.31;5009474;28;20440;-73
2023/07/18 10:02:16;;;;;;;7.18;3.28;;;;;;;31.16;43.48;100753.75;5008473;28;20037;-73
2023/07/18 10:04:44;;;;;;;6.70;3.58;;;;;;;31.23;43.83;100753.13;5006211;28;20025;-74
2023/07/18 10:07:09;;;;;;;5.88;3.20;;;;;;;31.23;43.75;100734.06;5007540;28;20025;-75
2023/07/18 10:09:36;;;;;;;8.65;3.75;;;;;;;31.33;43.74;100741.66;5002785;28;20026;-74
2023/07/18 10:12:01;;;;;;;6.38;3.30;;;;;;;31.40;43.78;100744.56;5005749;28;20030;-73
2023/07/18 10:14:42;;;;;;;6.77;3.40;;;;;;;31.43;42.45;100737.59;4999600;28;20571;-70
2023/07/18 10:17:07;;;;;;;9.50;3.47;;;;;;;31.41;42.65;100737.94;5000503;28;20842;-71
2023/07/18 10:19:53;;;;;;;7.55;3.80;;;;;;;31.51;42.98;100739.31;5001755;28;20037;-71
2023/07/18 10:22:29;;;;;;;6.50;3.50;;;;;;;31.57;42.20;100741.38;5007643;28;20040;-70
2023/07/18 10:25:00;;;;;;;3.85;3.20;;;;;;;31.63;41.17;100738.38;5005649;28;20089;-70
2023/07/18 10:27:37;;;;;;;5.30;3.13;;;;;;;31.66;40.42;100737.66;5009786;28;20434;-71
2023/07/18 10:30:08;;;;;;;6.80;3.13;;;;;;;31.70;40.34;100739.31;5006498;28;20872;-71
2023/07/18 10:32:36;;;;;;;8.43;3.42;;;;;;;31.65;39.25;100727.91;5008946;28;20041;-72
2023/07/18 10:35:06;;;;;;;6.30;3.72;;;;;;;31.75;39.68;100732.75;5007062;28;20033;-70
2023/07/18 10:37:32;;;;;;;7.47;3.33;;;;;;;31.81;39.65;100731.31;5008552;28;20491;-73
2023/07/18 10:39:58;;;;;;;5.20;3.08;;;;;;;31.71;39.49;100704.69;5007158;28;20030;-70
2023/07/18 10:42:26;;;;;;;4.55;3.47;;;;;;;31.75;39.04;100706.34;5010053;28;20049;-71
2023/07/18 10:44:59;;;;;;;4.55;3.17;;;;;;;31.93;38.74;100725.72;5005820;28;20466;-72
2023/07/18 10:47:26;;;;;;;4.28;3.28;;;;;;;31.89;38.49;100721.34;5005712;28;20058;-71
2023/07/18 10:49:52;;;;;;;5.30;3.20;;;;;;;32.06;38.28;100731.81;5007309;28;20049;-71
2023/07/18 10:52:18;;;;;;;9.40;3.22;;;;;;;32.06;36.41;100718.19;5009316;28;20041;-70
2023/07/18 10:54:45;;;;;;;3.63;3.10;;;;;;;32.05;36.54;100705.69;5012523;28;20093;-70
2023/07/18 10:57:10;;;;;;;6.35;2.95;;;;;;;32.25;36.11;100711.84;5009494;28;20113;-72
2023/07/18 10:59:38;;;;;;;7.47;3.03;;;;;;;32.31;36.10;100729.50;5009170;28;20474;-71
2023/07/18 11:02:04;;;;;;;5.35;2.92;;;;;;;32.28;35.86;100722.06;5009191;28;20053;-71
2023/07/18 11:04:29;;;;;;;4.68;3.08;;;;;;;32.31;35.49;100720.53;5007288;28;20041;-76
2023/07/18 11:06:56;;;;;;;3.85;3.00;;;;;;;32.32;35.14;100706.53;5000611;28;20041;-74
2023/07/18 11:09:25;;;;;;;7.15;2.95;;;;;;;32.36;34.81;100710.09;5001280;28;20033;-73
2023/07/18 11:11:51;;;;;;;5.90;2.92;;;;;;;32.42;34.20;100714.09;5003266;28;20026;-72
2023/07/18 11:14:18;;;;;;;3.10;2.80;;;;;;;32.37;34.83;100702.69;4998396;28;20089;-70
2023/07/18 11:16:44;;;;;;;6.95;3.30;;;;;;;32.51;34.75;100707.63;5001660;28;20097;-70
2023/07/18 11:19:09;;;;;;;6.22;3.25;;;;;;;32.52;33.58;100703.75;5000285;28;20081;-72
2023/07/18 11:21:36;;;;;;;4.57;3.20;;;;;;;32.54;33.54;100696.78;5001595;28;20075;-71